CYPXCYPH

Guest
Details From CYPX - PUVIRNITUQ
To CYPH - Inukjuak
Flight Number -
Tags generated
Created
Modified
Stats Distance 98 nm / 181 km
Max Altitude 100 ft / 30 m
Waypoints 3
Social Downloads 0
Likes 0
Share VATSIM

Download

Looking for another format? Having issues loading an existing format? Contact us
Advertisement - Login to hide

Notes

Basic altitude profile: - Ascent Rate: 2500ft/min - Ascent Speed: 250kts - Cruise Altitude: 35000ft - Cruise Speed: 420kts - Descent Rate: 1500ft/min - Descent Speed: 250kts Options: - Use NATs: yes - Use PACOTS: yes - Use low airways: yes - Use high airways: yes

Route

CYPX YPX CYPH

ID Type Via Altitude Latitude Longitude Leg Dist Tot Dist Heading (true) Name
O CYPX APT - 0 ft / 0 m 60.05042˚ -77.28694˚ - 0 nm - PUVIRNITUQ
YPX DME - 100 ft / 30 m 60.04361˚ -77.27950˚ 0 nm 0 nm 151° / 151° PUVIRNITUQ QUE DME
O CYPH APT - 0 ft / 0 m 58.47181˚ -78.07722˚ 97 nm 97 nm 195° / 194° Inukjuak

Altitude Profile

Advertisement - Login to hide

CYPX

Details ICAO CYPX (YPX)
Name PUVIRNITUQ
Region Canada
Timezone America/Montreal (UTC-5.0)
Stats Elevation 74 ft / 23 m (AMSL)
Location 60.050418° -77.286945°
Runways 1
Magnetic Variation 19.947° W

METAR

CYPX 181700Z AUTO 08010KT 9SM CLR M24/M26 A2946 RMK SLP981

Decode

TAF

TAF CYPX 181138Z 1812/1824 12008KT P6SM BKN030 TEMPO 1812/1824 5SM -SN OVC020 BECMG 1816/1818 09008KT RMK FCST BASED ON AUTO OBS. NXT FCST BY 181800Z

Decode

Departure Runways

ID Width Length Bearing (true) Bearing (mag) Surface Threshold Offset Overrun Length
01 100 ft / 30 m 4,971 ft / 1,515 m 343.44° 3.39° Gravel 0 ft / 0 m 0 ft / 0 m
19 100 ft / 30 m 4,971 ft / 1,515 m 163.44° 183.39° Gravel 0 ft / 0 m 0 ft / 0 m

CYPH

Details ICAO CYPH (YPH)
Name Inukjuak
Region Canada
Timezone America/Montreal (UTC-5.0)
Stats Elevation 78 ft / 24 m (AMSL)
Location 58.471815° -78.077222°
Runways 1
Magnetic Variation 18.121° W

METAR

CYPH 181700Z AUTO 00000KT OVC024 M16/M17 A2941 RMK WX MISG VIS MISG PCPN MISG SLP965

Decode

TAF

TAF CYPH 181138Z 1812/1824 FCST NOT AVBL DUE SENSORS INOP RMK FCST BASED ON AUTO OBS. NXT FCST BY 181800Z

Decode

Destination Runways

ID Width Length Bearing (true) Bearing (mag) Surface Threshold Offset Overrun Length
23 131 ft / 40 m 3,915 ft / 1,193 m 46.70° 64.82° Gravel 0 ft / 0 m 0 ft / 0 m
5 131 ft / 40 m 3,915 ft / 1,193 m 226.71° 244.83° Gravel 0 ft / 0 m 0 ft / 0 m

Popular Alternatives